RYR946 EPKK-LOWW
Flight info
| Callsign | RYR946 |
|---|---|
| Flight time | 0h 41m |
| Altitude | 24000 |
| Route | BABKO DCT VADEX DCT BABNI DCT TUTPI P182 REKLU |
| Aircraft | A320/M-SDE3FGHIRWY/LB1 |
Departure
| Time | 2026-04-26 09:07 |
|---|---|
| Airport | Kraków John Paul II International Airport (EPKK) |
Arrival
| Time | 2026-04-26 09:48 |
|---|---|
| Airport | Vienna International Airport (LOWW) |
| Time | Latitude | Longitude | Altitude | Speed | Heading |
|---|---|---|---|---|---|
| 2026-04-26 08:44 | 50.07453 | 19.80482 | 0 ft | 0 kts | 107° |
| 2026-04-26 08:58 | 50.07456 | 19.80467 | 792 ft | 4 kts | 106° |
| 2026-04-26 08:59 | 50.07462 | 19.80426 | 792 ft | 4 kts | 99° |
| 2026-04-26 08:59 | 50.07464 | 19.80386 | 792 ft | 4 kts | 63° |
| 2026-04-26 08:59 | 50.07449 | 19.80368 | 792 ft | 3 kts | 17° |
| 2026-04-26 08:59 | 50.07445 | 19.80366 | 792 ft | 0 kts | 17° |
| 2026-04-26 09:01 | 50.07450 | 19.80368 | 792 ft | 2 kts | 17° |
| 2026-04-26 09:02 | 50.07476 | 19.80380 | 792 ft | 6 kts | 17° |
| 2026-04-26 09:02 | 50.07522 | 19.80403 | 792 ft | 8 kts | 17° |
| 2026-04-26 09:02 | 50.07589 | 19.80422 | 792 ft | 11 kts | 357° |
| 2026-04-26 09:02 | 50.07674 | 19.80395 | 792 ft | 13 kts | 347° |
| 2026-04-26 09:03 | 50.07744 | 19.80371 | 792 ft | 10 kts | 347° |
| 2026-04-26 09:03 | 50.07795 | 19.80353 | 792 ft | 4 kts | 347° |
| 2026-04-26 09:03 | 50.07817 | 19.80346 | 792 ft | 5 kts | 347° |
| 2026-04-26 09:03 | 50.07838 | 19.80338 | 792 ft | 3 kts | 347° |
| 2026-04-26 09:04 | 50.07868 | 19.80328 | 792 ft | 6 kts | 347° |
| 2026-04-26 09:04 | 50.07919 | 19.80310 | 792 ft | 9 kts | 347° |
| 2026-04-26 09:04 | 50.07979 | 19.80289 | 791 ft | 7 kts | 347° |
| 2026-04-26 09:04 | 50.08018 | 19.80259 | 791 ft | 5 kts | 296° |
| 2026-04-26 09:05 | 50.08015 | 19.80210 | 791 ft | 0 kts | 257° |
| 2026-04-26 09:06 | 50.08007 | 19.80155 | 791 ft | 26 kts | 257° |
| 2026-04-26 09:06 | 50.07919 | 19.79509 | 792 ft | 92 kts | 258° |
| 2026-04-26 09:07 | 50.07743 | 19.78252 | 795 ft | 143 kts | 260° |
| 2026-04-26 09:07 | 50.07535 | 19.76733 | 1329 ft | 141 kts | 263° |
| 2026-04-26 09:07 | 50.07323 | 19.75226 | 1971 ft | 144 kts | 264° |
| 2026-04-26 09:07 | 50.07108 | 19.73709 | 2542 ft | 145 kts | 266° |
| 2026-04-26 09:08 | 50.06891 | 19.72145 | 3014 ft | 147 kts | 265° |
| 2026-04-26 09:08 | 50.06664 | 19.70589 | 3534 ft | 147 kts | 265° |
| 2026-04-26 09:08 | 50.06432 | 19.69007 | 4015 ft | 152 kts | 264° |
| 2026-04-26 09:08 | 50.06193 | 19.67301 | 4332 ft | 172 kts | 264° |
| 2026-04-26 09:09 | 50.05869 | 19.65370 | 4592 ft | 200 kts | 250° |
| 2026-04-26 09:09 | 50.04774 | 19.63766 | 4887 ft | 241 kts | 206° |
| 2026-04-26 09:09 | 50.03014 | 19.63472 | 5291 ft | 272 kts | 174° |
| 2026-04-26 09:09 | 50.01110 | 19.64150 | 5969 ft | 287 kts | 163° |
| 2026-04-26 09:10 | 49.99193 | 19.65139 | 6802 ft | 294 kts | 161° |
| 2026-04-26 09:10 | 49.97235 | 19.66160 | 7626 ft | 300 kts | 163° |
| 2026-04-26 09:10 | 49.95219 | 19.67110 | 8447 ft | 306 kts | 166° |
| 2026-04-26 09:10 | 49.93143 | 19.67977 | 9269 ft | 312 kts | 168° |
| 2026-04-26 09:11 | 49.91012 | 19.68743 | 10050 ft | 317 kts | 174° |
| 2026-04-26 09:11 | 49.88785 | 19.68933 | 10504 ft | 329 kts | 189° |
| 2026-04-26 09:11 | 49.86484 | 19.68282 | 10721 ft | 345 kts | 204° |
| 2026-04-26 09:11 | 49.84263 | 19.66768 | 11080 ft | 351 kts | 217° |
| 2026-04-26 09:12 | 49.82121 | 19.64882 | 11732 ft | 358 kts | 217° |
| 2026-04-26 09:12 | 49.79932 | 19.62981 | 12396 ft | 364 kts | 218° |
| 2026-04-26 09:12 | 49.77696 | 19.61054 | 13027 ft | 371 kts | 218° |
| 2026-04-26 09:12 | 49.75425 | 19.59104 | 13691 ft | 376 kts | 218° |
| 2026-04-26 09:13 | 49.73118 | 19.57130 | 14315 ft | 381 kts | 219° |
| 2026-04-26 09:13 | 49.70788 | 19.55140 | 14941 ft | 385 kts | 219° |
| 2026-04-26 09:13 | 49.68432 | 19.53133 | 15586 ft | 387 kts | 219° |
| 2026-04-26 09:13 | 49.66063 | 19.51118 | 16221 ft | 390 kts | 219° |
| 2026-04-26 09:14 | 49.63675 | 19.49089 | 16793 ft | 393 kts | 219° |
| 2026-04-26 09:14 | 49.61381 | 19.46857 | 17405 ft | 386 kts | 228° |
| 2026-04-26 09:14 | 49.59413 | 19.44117 | 17986 ft | 377 kts | 238° |
| 2026-04-26 09:14 | 49.57621 | 19.41144 | 18627 ft | 380 kts | 238° |
| 2026-04-26 09:15 | 49.55813 | 19.38156 | 19179 ft | 383 kts | 238° |
| 2026-04-26 09:15 | 49.53982 | 19.35151 | 19760 ft | 387 kts | 238° |
| 2026-04-26 09:15 | 49.52130 | 19.32126 | 20346 ft | 390 kts | 237° |
| 2026-04-26 09:15 | 49.50259 | 19.29079 | 20894 ft | 393 kts | 237° |
| 2026-04-26 09:16 | 49.48369 | 19.26015 | 21428 ft | 396 kts | 237° |
| 2026-04-26 09:16 | 49.46464 | 19.22930 | 21940 ft | 400 kts | 237° |
| 2026-04-26 09:16 | 49.44543 | 19.19815 | 22457 ft | 403 kts | 237° |
| 2026-04-26 09:16 | 49.42604 | 19.16672 | 22981 ft | 407 kts | 237° |
| 2026-04-26 09:17 | 49.40648 | 19.13508 | 23508 ft | 410 kts | 237° |
| 2026-04-26 09:17 | 49.38674 | 19.10321 | 23943 ft | 414 kts | 236° |
| 2026-04-26 09:17 | 49.36687 | 19.07115 | 24103 ft | 415 kts | 236° |
| 2026-04-26 09:17 | 49.34702 | 19.03918 | 24150 ft | 414 kts | 236° |
| 2026-04-26 09:18 | 49.32717 | 19.00724 | 24159 ft | 414 kts | 236° |
| 2026-04-26 09:18 | 49.30732 | 18.97533 | 24164 ft | 414 kts | 236° |
| 2026-04-26 09:18 | 49.28746 | 18.94343 | 24169 ft | 413 kts | 236° |
| 2026-04-26 09:18 | 49.26758 | 18.91160 | 24174 ft | 413 kts | 236° |
| 2026-04-26 09:19 | 49.24852 | 18.87902 | 24175 ft | 406 kts | 242° |
| 2026-04-26 09:19 | 49.23247 | 18.84394 | 24182 ft | 402 kts | 245° |
| 2026-04-26 09:19 | 49.21665 | 18.80861 | 24185 ft | 403 kts | 245° |
| 2026-04-26 09:19 | 49.20081 | 18.77332 | 24188 ft | 403 kts | 245° |
| 2026-04-26 09:20 | 49.18493 | 18.73803 | 24186 ft | 403 kts | 244° |
| 2026-04-26 09:20 | 49.16904 | 18.70278 | 24184 ft | 403 kts | 244° |
| 2026-04-26 09:20 | 49.15312 | 18.66752 | 24180 ft | 403 kts | 244° |
| 2026-04-26 09:20 | 49.13719 | 18.63230 | 24181 ft | 403 kts | 244° |
| 2026-04-26 09:21 | 49.12124 | 18.59707 | 24184 ft | 404 kts | 244° |
| 2026-04-26 09:21 | 49.10526 | 18.56178 | 24180 ft | 404 kts | 244° |
| 2026-04-26 09:21 | 49.08929 | 18.52649 | 24182 ft | 404 kts | 244° |
| 2026-04-26 09:21 | 49.07332 | 18.49125 | 24181 ft | 404 kts | 244° |
| 2026-04-26 09:22 | 49.05731 | 18.45597 | 24179 ft | 404 kts | 244° |
| 2026-04-26 09:22 | 49.04128 | 18.42072 | 24177 ft | 405 kts | 244° |
| 2026-04-26 09:22 | 49.02522 | 18.38552 | 24171 ft | 405 kts | 244° |
| 2026-04-26 09:22 | 49.00911 | 18.35030 | 24172 ft | 405 kts | 243° |
| 2026-04-26 09:23 | 48.99299 | 18.31514 | 24175 ft | 405 kts | 243° |
| 2026-04-26 09:23 | 48.97688 | 18.28005 | 24172 ft | 405 kts | 243° |
| 2026-04-26 09:23 | 48.96225 | 18.24385 | 24172 ft | 397 kts | 252° |
| 2026-04-26 09:23 | 48.95121 | 18.20573 | 24169 ft | 393 kts | 255° |
| 2026-04-26 09:24 | 48.94048 | 18.16740 | 24172 ft | 394 kts | 255° |
| 2026-04-26 09:24 | 48.92970 | 18.12912 | 24175 ft | 394 kts | 255° |
| 2026-04-26 09:24 | 48.91885 | 18.09083 | 24174 ft | 395 kts | 254° |
| 2026-04-26 09:24 | 48.90795 | 18.05257 | 24175 ft | 395 kts | 254° |
| 2026-04-26 09:25 | 48.89702 | 18.01425 | 24174 ft | 395 kts | 254° |
| 2026-04-26 09:25 | 48.88612 | 17.97605 | 24175 ft | 395 kts | 254° |
| 2026-04-26 09:25 | 48.87518 | 17.93770 | 24173 ft | 395 kts | 254° |
| 2026-04-26 09:25 | 48.86423 | 17.89944 | 24175 ft | 395 kts | 254° |
| 2026-04-26 09:26 | 48.85325 | 17.86114 | 24176 ft | 395 kts | 254° |
| 2026-04-26 09:26 | 48.84173 | 17.82317 | 24176 ft | 401 kts | 247° |
| 2026-04-26 09:26 | 48.82597 | 17.78797 | 24133 ft | 400 kts | 242° |
| 2026-04-26 09:26 | 48.80980 | 17.75388 | 23720 ft | 397 kts | 242° |
| 2026-04-26 09:27 | 48.79370 | 17.72014 | 23235 ft | 394 kts | 242° |
| 2026-04-26 09:27 | 48.77768 | 17.68660 | 22770 ft | 391 kts | 242° |
| 2026-04-26 09:27 | 48.76176 | 17.65329 | 22305 ft | 389 kts | 242° |
| 2026-04-26 09:27 | 48.74595 | 17.62022 | 21826 ft | 386 kts | 242° |
| 2026-04-26 09:28 | 48.73026 | 17.58743 | 21348 ft | 384 kts | 242° |
| 2026-04-26 09:28 | 48.71464 | 17.55481 | 20881 ft | 381 kts | 242° |
| 2026-04-26 09:28 | 48.69912 | 17.52246 | 20421 ft | 378 kts | 242° |
| 2026-04-26 09:28 | 48.68370 | 17.49034 | 19961 ft | 376 kts | 242° |
| 2026-04-26 09:29 | 48.66837 | 17.45840 | 19502 ft | 374 kts | 242° |
| 2026-04-26 09:29 | 48.65317 | 17.42679 | 19028 ft | 371 kts | 242° |
| 2026-04-26 09:29 | 48.63801 | 17.39529 | 18571 ft | 369 kts | 242° |
| 2026-04-26 09:29 | 48.62295 | 17.36406 | 18062 ft | 366 kts | 242° |
| 2026-04-26 09:30 | 48.60799 | 17.33315 | 17612 ft | 362 kts | 242° |
| 2026-04-26 09:30 | 48.59320 | 17.30262 | 17146 ft | 358 kts | 242° |
| 2026-04-26 09:30 | 48.57855 | 17.27235 | 16681 ft | 355 kts | 242° |
| 2026-04-26 09:30 | 48.56404 | 17.24239 | 16218 ft | 352 kts | 242° |
| 2026-04-26 09:31 | 48.54966 | 17.21267 | 15767 ft | 349 kts | 242° |
| 2026-04-26 09:31 | 48.53543 | 17.18324 | 15330 ft | 346 kts | 242° |
| 2026-04-26 09:31 | 48.52130 | 17.15403 | 14892 ft | 343 kts | 242° |
| 2026-04-26 09:31 | 48.50740 | 17.12555 | 14762 ft | 331 kts | 242° |
| 2026-04-26 09:32 | 48.49396 | 17.09819 | 14636 ft | 319 kts | 242° |
| 2026-04-26 09:32 | 48.48097 | 17.07173 | 14506 ft | 309 kts | 242° |
| 2026-04-26 09:32 | 48.47258 | 17.05457 | 14355 ft | 306 kts | 242° |
| 2026-04-26 09:32 | 48.46005 | 17.02885 | 14062 ft | 303 kts | 243° |
| 2026-04-26 09:33 | 48.44761 | 17.00334 | 13717 ft | 301 kts | 242° |
| 2026-04-26 09:33 | 48.43521 | 16.97805 | 13369 ft | 299 kts | 242° |
| 2026-04-26 09:33 | 48.42288 | 16.95291 | 13016 ft | 297 kts | 242° |
| 2026-04-26 09:33 | 48.41063 | 16.92794 | 12677 ft | 295 kts | 242° |
| 2026-04-26 09:34 | 48.39848 | 16.90315 | 12345 ft | 293 kts | 242° |
| 2026-04-26 09:34 | 48.38641 | 16.87853 | 12026 ft | 291 kts | 242° |
| 2026-04-26 09:34 | 48.37441 | 16.85410 | 11698 ft | 289 kts | 242° |
| 2026-04-26 09:34 | 48.36249 | 16.82982 | 11388 ft | 288 kts | 242° |
| 2026-04-26 09:35 | 48.35065 | 16.80570 | 11073 ft | 286 kts | 242° |
| 2026-04-26 09:35 | 48.34699 | 16.79826 | 10981 ft | 285 kts | 242° |
| 2026-04-26 09:35 | 48.33811 | 16.78024 | 10752 ft | 283 kts | 242° |
| 2026-04-26 09:35 | 48.32641 | 16.75650 | 10455 ft | 281 kts | 242° |
| 2026-04-26 09:36 | 48.31482 | 16.73294 | 10151 ft | 279 kts | 242° |
| 2026-04-26 09:36 | 48.30288 | 16.70991 | 9826 ft | 282 kts | 235° |
| 2026-04-26 09:36 | 48.28804 | 16.69016 | 9485 ft | 289 kts | 223° |
| 2026-04-26 09:36 | 48.27022 | 16.67539 | 9156 ft | 297 kts | 209° |
| 2026-04-26 09:37 | 48.25028 | 16.66685 | 8980 ft | 298 kts | 195° |
| 2026-04-26 09:37 | 48.22963 | 16.66509 | 8840 ft | 297 kts | 182° |
| 2026-04-26 09:37 | 48.20932 | 16.66996 | 8716 ft | 295 kts | 168° |
| 2026-04-26 09:37 | 48.18980 | 16.67822 | 8582 ft | 288 kts | 168° |
| 2026-04-26 09:38 | 48.17072 | 16.68626 | 8406 ft | 283 kts | 168° |
| 2026-04-26 09:38 | 48.15182 | 16.69414 | 8162 ft | 281 kts | 169° |
| 2026-04-26 09:38 | 48.13305 | 16.70192 | 7909 ft | 279 kts | 169° |
| 2026-04-26 09:38 | 48.11436 | 16.70964 | 7623 ft | 278 kts | 168° |
| 2026-04-26 09:39 | 48.09548 | 16.71743 | 7356 ft | 277 kts | 169° |
| 2026-04-26 09:39 | 48.07698 | 16.72509 | 7087 ft | 276 kts | 168° |
| 2026-04-26 09:39 | 48.05850 | 16.73278 | 6830 ft | 274 kts | 168° |
| 2026-04-26 09:39 | 48.04017 | 16.74042 | 6565 ft | 273 kts | 168° |
| 2026-04-26 09:40 | 48.02194 | 16.74801 | 6278 ft | 271 kts | 168° |
| 2026-04-26 09:40 | 48.00376 | 16.75554 | 6020 ft | 269 kts | 168° |
| 2026-04-26 09:40 | 47.98579 | 16.76296 | 5800 ft | 267 kts | 167° |
| 2026-04-26 09:40 | 47.96815 | 16.77024 | 5523 ft | 266 kts | 167° |
| 2026-04-26 09:41 | 47.95012 | 16.77772 | 5273 ft | 264 kts | 166° |
| 2026-04-26 09:41 | 47.93247 | 16.78507 | 5026 ft | 263 kts | 165° |
| 2026-04-26 09:41 | 47.91486 | 16.79238 | 4728 ft | 262 kts | 165° |
| 2026-04-26 09:41 | 47.89707 | 16.79571 | 4426 ft | 255 kts | 191° |
| 2026-04-26 09:42 | 47.88115 | 16.78649 | 4142 ft | 241 kts | 224° |
| 2026-04-26 09:42 | 47.87139 | 16.76763 | 3818 ft | 225 kts | 256° |
| 2026-04-26 09:42 | 47.86795 | 16.74533 | 3466 ft | 219 kts | 273° |
| 2026-04-26 09:42 | 47.86917 | 16.72312 | 3124 ft | 213 kts | 289° |
| 2026-04-26 09:43 | 47.87466 | 16.70305 | 3016 ft | 208 kts | 305° |
| 2026-04-26 09:43 | 47.88365 | 16.68636 | 3015 ft | 206 kts | 319° |
| 2026-04-26 09:43 | 47.89530 | 16.67416 | 3016 ft | 205 kts | 334° |
| 2026-04-26 09:43 | 47.90868 | 16.66705 | 3024 ft | 205 kts | 343° |
| 2026-04-26 09:44 | 47.92245 | 16.66129 | 3014 ft | 207 kts | 344° |
| 2026-04-26 09:44 | 47.93622 | 16.65551 | 3030 ft | 211 kts | 344° |
| 2026-04-26 09:44 | 47.95028 | 16.64960 | 3023 ft | 203 kts | 344° |
| 2026-04-26 09:44 | 47.96349 | 16.64405 | 3028 ft | 191 kts | 344° |
| 2026-04-26 09:45 | 47.97600 | 16.63880 | 2908 ft | 183 kts | 343° |
| 2026-04-26 09:45 | 47.98791 | 16.63380 | 2725 ft | 174 kts | 343° |
| 2026-04-26 09:45 | 47.99944 | 16.62895 | 2500 ft | 169 kts | 343° |
| 2026-04-26 09:45 | 48.01027 | 16.62439 | 2266 ft | 155 kts | 343° |
| 2026-04-26 09:46 | 48.02036 | 16.62014 | 2053 ft | 148 kts | 342° |
| 2026-04-26 09:46 | 48.03007 | 16.61605 | 1856 ft | 143 kts | 343° |
| 2026-04-26 09:46 | 48.03957 | 16.61204 | 1670 ft | 141 kts | 343° |
| 2026-04-26 09:46 | 48.04885 | 16.60813 | 1475 ft | 133 kts | 344° |
| 2026-04-26 09:47 | 48.05748 | 16.60449 | 1293 ft | 126 kts | 345° |
| 2026-04-26 09:47 | 48.06580 | 16.60099 | 1115 ft | 124 kts | 346° |
| 2026-04-26 09:47 | 48.07400 | 16.59754 | 953 ft | 121 kts | 345° |
| 2026-04-26 09:47 | 48.08211 | 16.59407 | 778 ft | 121 kts | 345° |
| 2026-04-26 09:48 | 48.09019 | 16.59067 | 641 ft | 120 kts | 347° |
| 2026-04-26 09:48 | 48.09744 | 16.58764 | 621 ft | 89 kts | 344° |
| 2026-04-26 09:48 | 48.10174 | 16.58581 | 616 ft | 46 kts | 344° |
| 2026-04-26 09:48 | 48.10452 | 16.58468 | 614 ft | 37 kts | 345° |
| 2026-04-26 09:49 | 48.10677 | 16.58333 | 611 ft | 34 kts | 329° |
| 2026-04-26 09:49 | 48.10822 | 16.58143 | 621 ft | 21 kts | 315° |
| 2026-04-26 09:49 | 48.10929 | 16.57991 | 611 ft | 21 kts | 328° |
| 2026-04-26 09:49 | 48.11057 | 16.57929 | 613 ft | 15 kts | 340° |
| 2026-04-26 09:50 | 48.11128 | 16.57806 | 618 ft | 17 kts | 296° |
| 2026-04-26 09:50 | 48.11183 | 16.57638 | 611 ft | 19 kts | 296° |
| 2026-04-26 09:50 | 48.11246 | 16.57447 | 621 ft | 22 kts | 294° |
| 2026-04-26 09:50 | 48.11314 | 16.57234 | 619 ft | 24 kts | 296° |
| 2026-04-26 09:51 | 48.11390 | 16.57002 | 623 ft | 26 kts | 296° |
| 2026-04-26 09:51 | 48.11471 | 16.56752 | 611 ft | 28 kts | 296° |
| 2026-04-26 09:51 | 48.11553 | 16.56499 | 616 ft | 24 kts | 295° |
| 2026-04-26 09:51 | 48.11632 | 16.56271 | 610 ft | 25 kts | 296° |
| 2026-04-26 09:52 | 48.11692 | 16.56074 | 615 ft | 18 kts | 295° |
| 2026-04-26 09:52 | 48.11797 | 16.55837 | 613 ft | 11 kts | 356° |
| 2026-04-26 09:52 | 48.11877 | 16.55888 | 610 ft | 14 kts | 26° |
| 2026-04-26 09:53 | 48.11959 | 16.55948 | 616 ft | 8 kts | 26° |
| 2026-04-26 09:53 | 48.11993 | 16.55916 | 610 ft | 7 kts | 297° |
| 2026-04-26 09:53 | 48.12006 | 16.55875 | 622 ft | 3 kts | 296° |
| 2026-04-26 09:53 | 48.12007 | 16.55873 | 622 ft | 0 kts | 295° |